PWSweather.com
Personal Weather Stations
Station Observations
CARNOUSTIE
Pambride, CarnoustieGB DD7 6DY

PambrideCarnoustieGB DD7 6DY

Lat: 56.50889, Lon: -2.7051

Elevation: 105

Station Type: Oregon Scientific WMR200

www.carnoustieweather.co.uk

High Low Average
Temperature 67.3°F19.6°C 50.5°F10.3°C 58.8°F14.9°C
Dew Point 54.4°F12.4°C 42.5°F5.8°C 47.8°F8.8°C
Winds 25.3 mph 40.7 kmh 6.9 mph 11.1 kmh 12.0 mph WSW19.3 kmh WSW
Wind Gusts 34.5 mph55.5 kmh 9.2 mph14.8 kmh 17.0 mph27.4 kmh
Humidity 92% 47% 68%
Pressure 29.86 in1011.2 mb 29.71 in1006.1 mb -
Precipitation 0.00 in0.0 mm - -
Hour Temp Dew Point Humidity Winds Wind Gusts Pressure Precip Precip Rate Daily Precip Total
12:00 AM 56.7°F13.7°C 54.4°F12.4°C 92% 8.1 mph WSW13.0 kmh WSW 11.5 mph18.5 kmh 29.71 in1006.1 mb - 0.00 in0.0 mm 0.00 in0.0 mm
12:10 AM 56.7°F13.7°C 54.1°F12.3°C 91% 6.9 mph W11.1 kmh W 9.2 mph14.8 kmh 29.71 in1006.1 mb - 0.00 in0.0 mm 0.00 in0.0 mm
12:20 AM 56.7°F13.7°C 54.1°F12.3°C 91% 6.9 mph SW11.1 kmh SW 11.5 mph18.5 kmh 29.74 in1007.1 mb - 0.00 in0.0 mm 0.00 in0.0 mm
12:30 AM 56.8°F13.8°C 54.2°F12.3°C 91% 9.2 mph W14.8 kmh W 11.5 mph18.5 kmh 29.74 in1007.1 mb - 0.00 in0.0 mm 0.00 in0.0 mm
12:40 AM 57.0°F13.9°C 53.2°F11.8°C 87% 13.8 mph W22.2 kmh W 17.3 mph27.8 kmh 29.74 in1007.1 mb - 0.00 in0.0 mm 0.00 in0.0 mm
12:50 AM 56.8°F13.8°C 52.7°F11.5°C 86% 10.4 mph WSW16.7 kmh WSW 11.5 mph18.5 kmh 29.74 in1007.1 mb - 0.00 in0.0 mm 0.00 in0.0 mm
01:00 AM 56.7°F13.7°C 52.2°F11.2°C 85% 13.8 mph W22.2 kmh W 19.6 mph31.5 kmh 29.74 in1007.1 mb - 0.00 in0.0 mm 0.00 in0.0 mm
01:10 AM 56.3°F13.5°C 51.8°F11.0°C 85% 11.5 mph W18.5 kmh W 13.8 mph22.2 kmh 29.74 in1007.1 mb - 0.00 in0.0 mm 0.00 in0.0 mm
01:20 AM 56.1°F13.4°C 51.7°F10.9°C 85% 10.4 mph WSW16.7 kmh WSW 13.8 mph22.2 kmh 29.74 in1007.1 mb - 0.00 in0.0 mm 0.00 in0.0 mm
01:30 AM 55.9°F13.3°C 51.8°F11.0°C 86% 6.9 mph WSW11.1 kmh WSW 9.2 mph14.8 kmh 29.74 in1007.1 mb - 0.00 in0.0 mm 0.00 in0.0 mm
01:40 AM 55.9°F13.3°C 51.5°F10.8°C 85% 9.2 mph WNW14.8 kmh WNW 10.4 mph16.7 kmh 29.74 in1007.1 mb - 0.00 in0.0 mm 0.00 in0.0 mm
01:50 AM 55.6°F13.1°C 51.1°F10.6°C 85% 10.4 mph W16.7 kmh W 10.4 mph16.7 kmh 29.74 in1007.1 mb - 0.00 in0.0 mm 0.00 in0.0 mm
02:00 AM 55.4°F13.0°C 51.0°F10.6°C 85% 9.2 mph WSW14.8 kmh WSW 12.7 mph20.4 kmh 29.74 in1007.1 mb - 0.00 in0.0 mm 0.00 in0.0 mm
02:10 AM 55.0°F12.8°C 50.9°F10.5°C 86% 10.4 mph WSW16.7 kmh WSW 15.0 mph24.1 kmh 29.74 in1007.1 mb - 0.00 in0.0 mm 0.00 in0.0 mm
02:20 AM 54.7°F12.6°C 50.6°F10.3°C 86% 6.9 mph WSW11.1 kmh WSW 11.5 mph18.5 kmh 29.74 in1007.1 mb - 0.00 in0.0 mm 0.00 in0.0 mm
02:30 AM 54.5°F12.5°C 50.7°F10.4°C 87% 9.2 mph W14.8 kmh W 13.8 mph22.2 kmh 29.74 in1007.1 mb - 0.00 in0.0 mm 0.00 in0.0 mm
02:40 AM 54.5°F12.5°C 50.4°F10.2°C 86% 11.5 mph WNW18.5 kmh WNW 13.8 mph22.2 kmh 29.71 in1006.1 mb - 0.00 in0.0 mm 0.00 in0.0 mm
02:50 AM 54.1°F12.3°C 50.0°F10.0°C 86% 12.7 mph WSW20.4 kmh WSW 16.1 mph25.9 kmh 29.74 in1007.1 mb - 0.00 in0.0 mm 0.00 in0.0 mm
03:00 AM 54.1°F12.3°C 50.0°F10.0°C 86% 10.4 mph W16.7 kmh W 15.0 mph24.1 kmh 29.74 in1007.1 mb - 0.00 in0.0 mm 0.00 in0.0 mm
03:10 AM 54.1°F12.3°C 49.7°F9.8°C 85% 10.4 mph W16.7 kmh W 13.8 mph22.2 kmh 29.74 in1007.1 mb - 0.00 in0.0 mm 0.00 in0.0 mm
03:20 AM 54.1°F12.3°C 49.4°F9.7°C 84% 13.8 mph W22.2 kmh W 15.0 mph24.1 kmh 29.77 in1008.1 mb - 0.00 in0.0 mm 0.00 in0.0 mm
03:30 AM 54.0°F12.2°C 49.2°F9.6°C 84% 9.2 mph WSW14.8 kmh WSW 11.5 mph18.5 kmh 29.77 in1008.1 mb - 0.00 in0.0 mm 0.00 in0.0 mm
03:40 AM 54.0°F12.2°C 49.2°F9.6°C 84% 6.9 mph SW11.1 kmh SW 12.7 mph20.4 kmh 29.71 in1006.1 mb - 0.00 in0.0 mm 0.00 in0.0 mm
03:50 AM 54.0°F12.2°C 49.2°F9.6°C 84% 10.4 mph W16.7 kmh W 11.5 mph18.5 kmh 29.71 in1006.1 mb - 0.00 in0.0 mm 0.00 in0.0 mm
04:00 AM 54.1°F12.3°C 49.1°F9.5°C 83% 11.5 mph WSW18.5 kmh WSW 15.0 mph24.1 kmh 29.71 in1006.1 mb - 0.00 in0.0 mm 0.00 in0.0 mm
04:10 AM 54.3°F12.4°C 49.3°F9.6°C 83% 10.4 mph W16.7 kmh W 12.7 mph20.4 kmh 29.74 in1007.1 mb - 0.00 in0.0 mm 0.00 in0.0 mm
04:20 AM 54.0°F12.2°C 48.9°F9.4°C 83% 6.9 mph WSW11.1 kmh WSW 10.4 mph16.7 kmh 29.74 in1007.1 mb - 0.00 in0.0 mm 0.00 in0.0 mm
04:30 AM 53.8°F12.1°C 48.7°F9.3°C 83% 9.2 mph WNW14.8 kmh WNW 10.4 mph16.7 kmh 29.74 in1007.1 mb - 0.00 in0.0 mm 0.00 in0.0 mm
04:40 AM 54.0°F12.2°C 48.9°F9.4°C 83% 12.7 mph W20.4 kmh W 15.0 mph24.1 kmh 29.74 in1007.1 mb - 0.00 in0.0 mm 0.00 in0.0 mm
04:50 AM 54.5°F12.5°C 49.1°F9.5°C 82% 12.7 mph W20.4 kmh W 18.4 mph29.6 kmh 29.77 in1008.1 mb - 0.00 in0.0 mm 0.00 in0.0 mm
05:00 AM 54.7°F12.6°C 49.3°F9.6°C 82% 11.5 mph WSW18.5 kmh WSW 15.0 mph24.1 kmh 29.77 in1008.1 mb - 0.00 in0.0 mm 0.00 in0.0 mm
05:10 AM 55.0°F12.8°C 49.6°F9.8°C 82% 12.7 mph SW20.4 kmh SW 18.4 mph29.6 kmh 29.74 in1007.1 mb - 0.00 in0.0 mm 0.00 in0.0 mm
05:20 AM 55.2°F12.9°C 49.5°F9.7°C 81% 11.5 mph WSW18.5 kmh WSW 18.4 mph29.6 kmh 29.77 in1008.1 mb - 0.00 in0.0 mm 0.00 in0.0 mm
05:30 AM 55.4°F13.0°C 49.3°F9.6°C 80% 11.5 mph WNW18.5 kmh WNW 15.0 mph24.1 kmh 29.77 in1008.1 mb - 0.00 in0.0 mm 0.00 in0.0 mm
05:40 AM 55.4°F13.0°C 49.0°F9.4°C 79% 13.8 mph WSW22.2 kmh WSW 19.6 mph31.5 kmh 29.77 in1008.1 mb - 0.00 in0.0 mm 0.00 in0.0 mm
05:50 AM 55.6°F13.1°C 48.5°F9.2°C 77% 11.5 mph WSW18.5 kmh WSW 18.4 mph29.6 kmh 29.77 in1008.1 mb - 0.00 in0.0 mm 0.00 in0.0 mm
06:00 AM 55.6°F13.1°C 48.1°F8.9°C 76% 10.4 mph WSW16.7 kmh WSW 15.0 mph24.1 kmh 29.77 in1008.1 mb - 0.00 in0.0 mm 0.00 in0.0 mm
06:10 AM 55.2°F12.9°C 47.8°F8.8°C 76% 11.5 mph WSW18.5 kmh WSW 16.1 mph25.9 kmh 29.77 in1008.1 mb - 0.00 in0.0 mm 0.00 in0.0 mm
06:20 AM 55.0°F12.8°C 47.6°F8.7°C 76% 9.2 mph WSW14.8 kmh WSW 11.5 mph18.5 kmh 29.80 in1009.1 mb - 0.00 in0.0 mm 0.00 in0.0 mm
06:30 AM 55.2°F12.9°C 48.1°F8.9°C 77% 10.4 mph WSW16.7 kmh WSW 12.7 mph20.4 kmh 29.80 in1009.1 mb - 0.00 in0.0 mm 0.00 in0.0 mm
06:40 AM 55.4°F13.0°C 48.0°F8.9°C 76% 10.4 mph WSW16.7 kmh WSW 15.0 mph24.1 kmh 29.77 in1008.1 mb - 0.00 in0.0 mm 0.00 in0.0 mm
06:50 AM 55.4°F13.0°C 48.7°F9.3°C 78% 8.1 mph WSW13.0 kmh WSW 11.5 mph18.5 kmh 29.80 in1009.1 mb - 0.00 in0.0 mm 0.00 in0.0 mm
07:00 AM 55.4°F13.0°C 49.0°F9.4°C 79% 11.5 mph WSW18.5 kmh WSW 13.8 mph22.2 kmh 29.80 in1009.1 mb - 0.00 in0.0 mm 0.00 in0.0 mm
07:10 AM 55.8°F13.2°C 48.7°F9.3°C 77% 11.5 mph WSW18.5 kmh WSW 20.7 mph33.3 kmh 29.80 in1009.1 mb - 0.00 in0.0 mm 0.00 in0.0 mm
07:20 AM 55.9°F13.3°C 48.1°F8.9°C 75% 10.4 mph WSW16.7 kmh WSW 13.8 mph22.2 kmh 29.80 in1009.1 mb - 0.00 in0.0 mm 0.00 in0.0 mm
07:30 AM 56.3°F13.5°C 47.8°F8.8°C 73% 10.4 mph WSW16.7 kmh WSW 17.3 mph27.8 kmh 29.80 in1009.1 mb - 0.00 in0.0 mm 0.00 in0.0 mm
07:40 AM 56.7°F13.7°C 48.1°F8.9°C 73% 10.4 mph WSW16.7 kmh WSW 12.7 mph20.4 kmh 29.80 in1009.1 mb - 0.00 in0.0 mm 0.00 in0.0 mm
07:50 AM 56.8°F13.8°C 48.3°F9.1°C 73% 10.4 mph SW16.7 kmh SW 16.1 mph25.9 kmh 29.80 in1009.1 mb - 0.00 in0.0 mm 0.00 in0.0 mm
08:00 AM 58.1°F14.5°C 49.1°F9.5°C 72% 11.5 mph SW18.5 kmh SW 15.0 mph24.1 kmh 29.80 in1009.1 mb - 0.00 in0.0 mm 0.00 in0.0 mm
08:10 AM 58.1°F14.5°C 48.0°F8.9°C 69% 13.8 mph W22.2 kmh W 20.7 mph33.3 kmh 29.80 in1009.1 mb - 0.00 in0.0 mm 0.00 in0.0 mm
08:20 AM 57.9°F14.4°C 48.6°F9.2°C 71% 9.2 mph WSW14.8 kmh WSW 10.4 mph16.7 kmh 29.77 in1008.1 mb - 0.00 in0.0 mm 0.00 in0.0 mm
08:30 AM 58.4°F14.7°C 48.7°F9.3°C 70% 10.4 mph W16.7 kmh W 15.0 mph24.1 kmh 29.77 in1008.1 mb - 0.00 in0.0 mm 0.00 in0.0 mm
08:40 AM 59.2°F15.1°C 49.0°F9.4°C 69% 9.2 mph WSW14.8 kmh WSW 10.4 mph16.7 kmh 29.80 in1009.1 mb - 0.00 in0.0 mm 0.00 in0.0 mm
08:50 AM 58.8°F14.9°C 48.3°F9.1°C 68% 12.7 mph WSW20.4 kmh WSW 16.1 mph25.9 kmh 29.77 in1008.1 mb - 0.00 in0.0 mm 0.00 in0.0 mm
09:00 AM 58.6°F14.8°C 48.5°F9.2°C 69% 15.0 mph WSW24.1 kmh WSW 18.4 mph29.6 kmh 29.77 in1008.1 mb - 0.00 in0.0 mm 0.00 in0.0 mm
09:10 AM 59.0°F15.0°C 48.8°F9.3°C 69% 10.4 mph WSW16.7 kmh WSW 12.7 mph20.4 kmh 29.80 in1009.1 mb - 0.00 in0.0 mm 0.00 in0.0 mm
09:20 AM 58.8°F14.9°C 48.3°F9.1°C 68% 11.5 mph W18.5 kmh W 17.3 mph27.8 kmh 29.80 in1009.1 mb - 0.00 in0.0 mm 0.00 in0.0 mm
09:30 AM 60.0°F15.6°C 49.0°F9.4°C 67% 10.4 mph WSW16.7 kmh WSW 18.4 mph29.6 kmh 29.80 in1009.1 mb - 0.00 in0.0 mm 0.00 in0.0 mm
09:40 AM 61.5°F16.4°C 48.8°F9.3°C 63% 11.5 mph W18.5 kmh W 18.4 mph29.6 kmh 29.80 in1009.1 mb - 0.00 in0.0 mm 0.00 in0.0 mm
09:50 AM 62.2°F16.8°C 48.2°F9.0°C 60% 13.8 mph WSW22.2 kmh WSW 20.7 mph33.3 kmh 29.82 in1009.8 mb - 0.00 in0.0 mm 0.00 in0.0 mm
10:00 AM 62.5°F16.9°C 48.4°F9.1°C 60% 11.5 mph WSW18.5 kmh WSW 15.0 mph24.1 kmh 29.82 in1009.8 mb - 0.00 in0.0 mm 0.00 in0.0 mm
10:10 AM 63.0°F17.2°C 48.4°F9.1°C 59% 12.7 mph WSW20.4 kmh WSW 15.0 mph24.1 kmh 29.82 in1009.8 mb - 0.00 in0.0 mm 0.00 in0.0 mm
10:20 AM 62.1°F16.7°C 47.1°F8.4°C 58% 12.7 mph WSW20.4 kmh WSW 23.0 mph37.0 kmh 29.80 in1009.1 mb - 0.00 in0.0 mm 0.00 in0.0 mm
10:30 AM 63.0°F17.2°C 48.9°F9.4°C 60% 11.5 mph W18.5 kmh W 23.0 mph37.0 kmh 29.80 in1009.1 mb - 0.00 in0.0 mm 0.00 in0.0 mm
10:40 AM 61.8°F16.6°C 49.1°F9.5°C 63% 16.1 mph WSW25.9 kmh WSW 23.0 mph37.0 kmh 29.80 in1009.1 mb - 0.00 in0.0 mm 0.00 in0.0 mm
10:50 AM 61.9°F16.6°C 50.4°F10.2°C 66% 13.8 mph WSW22.2 kmh WSW 21.9 mph35.2 kmh 29.80 in1009.1 mb - 0.00 in0.0 mm 0.00 in0.0 mm
11:00 AM 63.1°F17.3°C 49.0°F9.4°C 60% 13.8 mph WSW22.2 kmh WSW 20.7 mph33.3 kmh 29.80 in1009.1 mb - 0.00 in0.0 mm 0.00 in0.0 mm
11:10 AM 63.9°F17.7°C 47.4°F8.6°C 55% 12.7 mph WSW20.4 kmh WSW 20.7 mph33.3 kmh 29.80 in1009.1 mb - 0.00 in0.0 mm 0.00 in0.0 mm
11:20 AM 64.5°F18.1°C 47.0°F8.3°C 53% 18.4 mph WSW29.6 kmh WSW 25.3 mph40.7 kmh 29.80 in1009.1 mb - 0.00 in0.0 mm 0.00 in0.0 mm
11:30 AM 64.6°F18.1°C 47.6°F8.7°C 54% 11.5 mph WSW18.5 kmh WSW 18.4 mph29.6 kmh 29.80 in1009.1 mb - 0.00 in0.0 mm 0.00 in0.0 mm
11:50 AM 63.9°F17.7°C 48.9°F9.4°C 58% 13.8 mph W22.2 kmh W 20.7 mph33.3 kmh 29.80 in1009.1 mb - 0.00 in0.0 mm 0.00 in0.0 mm
12:00 PM 63.5°F17.5°C 48.5°F9.2°C 58% 11.5 mph SW18.5 kmh SW 11.5 mph18.5 kmh 29.80 in1009.1 mb - 0.00 in0.0 mm 0.00 in0.0 mm
12:10 PM 63.1°F17.3°C 49.0°F9.4°C 60% 10.4 mph WSW16.7 kmh WSW 13.8 mph22.2 kmh 29.80 in1009.1 mb - 0.00 in0.0 mm 0.00 in0.0 mm
12:20 PM 63.1°F17.3°C 49.0°F9.4°C 60% 11.5 mph WSW18.5 kmh WSW 19.6 mph31.5 kmh 29.80 in1009.1 mb - 0.00 in0.0 mm 0.00 in0.0 mm
12:30 PM 64.3°F17.9°C 49.2°F9.6°C 58% 16.1 mph W25.9 kmh W 18.4 mph29.6 kmh 29.80 in1009.1 mb - 0.00 in0.0 mm 0.00 in0.0 mm
12:40 PM 65.0°F18.3°C 47.9°F8.8°C 54% 13.8 mph W22.2 kmh W 18.4 mph29.6 kmh 29.77 in1008.1 mb - 0.00 in0.0 mm 0.00 in0.0 mm
12:50 PM 63.4°F17.4°C 47.4°F8.6°C 56% 12.7 mph SW20.4 kmh SW 18.4 mph29.6 kmh 29.80 in1009.1 mb - 0.00 in0.0 mm 0.00 in0.0 mm
01:00 PM 63.4°F17.4°C 48.8°F9.3°C 59% 12.7 mph WSW20.4 kmh WSW 20.7 mph33.3 kmh 29.80 in1009.1 mb - 0.00 in0.0 mm 0.00 in0.0 mm
01:10 PM 62.8°F17.1°C 47.8°F8.8°C 58% 17.3 mph W27.8 kmh W 15.0 mph24.1 kmh 29.80 in1009.1 mb - 0.00 in0.0 mm 0.00 in0.0 mm
01:20 PM 65.5°F18.6°C 48.9°F9.4°C 55% 18.4 mph W29.6 kmh W 20.7 mph33.3 kmh 29.80 in1009.1 mb - 0.00 in0.0 mm 0.00 in0.0 mm
01:30 PM 66.2°F19.0°C 47.5°F8.6°C 51% 15.0 mph WSW24.1 kmh WSW 20.7 mph33.3 kmh 29.80 in1009.1 mb - 0.00 in0.0 mm 0.00 in0.0 mm
01:40 PM 64.6°F18.1°C 49.1°F9.5°C 57% 13.8 mph W22.2 kmh W 19.6 mph31.5 kmh 29.82 in1009.8 mb - 0.00 in0.0 mm 0.00 in0.0 mm
01:50 PM 65.2°F18.4°C 48.6°F9.2°C 55% 11.5 mph WSW18.5 kmh WSW 17.3 mph27.8 kmh 29.80 in1009.1 mb - 0.00 in0.0 mm 0.00 in0.0 mm
02:00 PM 66.9°F19.4°C 48.7°F9.3°C 52% 15.0 mph WSW24.1 kmh WSW 24.2 mph38.9 kmh 29.80 in1009.1 mb - 0.00 in0.0 mm 0.00 in0.0 mm
02:10 PM 67.3°F19.6°C 47.5°F8.6°C 49% 18.4 mph WSW29.6 kmh WSW 25.3 mph40.7 kmh 29.80 in1009.1 mb - 0.00 in0.0 mm 0.00 in0.0 mm
02:20 PM 67.2°F19.6°C 46.9°F8.3°C 48% 21.9 mph W35.2 kmh W 34.5 mph55.5 kmh 29.80 in1009.1 mb - 0.00 in0.0 mm 0.00 in0.0 mm
02:30 PM 67.2°F19.6°C 46.3°F7.9°C 47% 25.3 mph W40.7 kmh W 31.1 mph50.1 kmh 29.80 in1009.1 mb - 0.00 in0.0 mm 0.00 in0.0 mm
02:40 PM 67.3°F19.6°C 46.9°F8.3°C 48% 12.7 mph W20.4 kmh W 21.9 mph35.2 kmh 29.80 in1009.1 mb - 0.00 in0.0 mm 0.00 in0.0 mm
02:50 PM 66.1°F18.9°C 46.4°F8.0°C 49% 18.4 mph WSW29.6 kmh WSW 26.5 mph42.6 kmh 29.80 in1009.1 mb - 0.00 in0.0 mm 0.00 in0.0 mm
03:00 PM 64.8°F18.2°C 45.7°F7.6°C 50% 13.8 mph W22.2 kmh W 15.0 mph24.1 kmh 29.80 in1009.1 mb - 0.00 in0.0 mm 0.00 in0.0 mm
03:10 PM 64.0°F17.8°C 46.1°F7.8°C 52% 17.3 mph W27.8 kmh W 25.3 mph40.7 kmh 29.77 in1008.1 mb - 0.00 in0.0 mm 0.00 in0.0 mm
03:20 PM 63.5°F17.5°C 46.1°F7.8°C 53% 12.7 mph WSW20.4 kmh WSW 18.4 mph29.6 kmh 29.80 in1009.1 mb - 0.00 in0.0 mm 0.00 in0.0 mm
03:30 PM 63.1°F17.3°C 45.7°F7.6°C 53% 16.1 mph W25.9 kmh W 25.3 mph40.7 kmh 29.80 in1009.1 mb - 0.00 in0.0 mm 0.00 in0.0 mm
03:40 PM 63.5°F17.5°C 46.6°F8.1°C 54% 17.3 mph W27.8 kmh W 25.3 mph40.7 kmh 29.77 in1008.1 mb - 0.00 in0.0 mm 0.00 in0.0 mm
03:50 PM 63.1°F17.3°C 46.2°F7.9°C 54% 16.1 mph W25.9 kmh W 31.1 mph50.1 kmh 29.80 in1009.1 mb - 0.00 in0.0 mm 0.00 in0.0 mm
04:00 PM 63.4°F17.4°C 47.4°F8.6°C 56% 11.5 mph WSW18.5 kmh WSW 18.4 mph29.6 kmh 29.80 in1009.1 mb - 0.00 in0.0 mm 0.00 in0.0 mm
04:10 PM 65.8°F18.8°C 48.2°F9.0°C 53% 16.1 mph WSW25.9 kmh WSW 16.1 mph25.9 kmh 29.77 in1008.1 mb - 0.00 in0.0 mm 0.00 in0.0 mm
04:20 PM 65.5°F18.6°C 46.3°F7.9°C 50% 11.5 mph W18.5 kmh W 16.1 mph25.9 kmh 29.77 in1008.1 mb - 0.00 in0.0 mm 0.00 in0.0 mm
04:30 PM 66.4°F19.1°C 47.7°F8.7°C 51% 15.0 mph WSW24.1 kmh WSW 24.2 mph38.9 kmh 29.77 in1008.1 mb - 0.00 in0.0 mm 0.00 in0.0 mm
04:40 PM 65.8°F18.8°C 47.2°F8.4°C 51% 16.1 mph WSW25.9 kmh WSW 23.0 mph37.0 kmh 29.77 in1008.1 mb - 0.00 in0.0 mm 0.00 in0.0 mm
04:50 PM 66.0°F18.9°C 47.4°F8.6°C 51% 16.1 mph WSW25.9 kmh WSW 21.9 mph35.2 kmh 29.74 in1007.1 mb - 0.00 in0.0 mm 0.00 in0.0 mm
05:00 PM 65.1°F18.4°C 47.6°F8.7°C 53% 12.7 mph WSW20.4 kmh WSW 17.3 mph27.8 kmh 29.74 in1007.1 mb - 0.00 in0.0 mm 0.00 in0.0 mm
05:10 PM 64.7°F18.2°C 48.1°F8.9°C 55% 11.5 mph W18.5 kmh W 13.8 mph22.2 kmh 29.77 in1008.1 mb - 0.00 in0.0 mm 0.00 in0.0 mm
05:20 PM 64.3°F17.9°C 48.2°F9.0°C 56% 11.5 mph WSW18.5 kmh WSW 16.1 mph25.9 kmh 29.74 in1007.1 mb - 0.00 in0.0 mm 0.00 in0.0 mm
05:30 PM 64.8°F18.2°C 48.7°F9.3°C 56% 11.5 mph WSW18.5 kmh WSW 17.3 mph27.8 kmh 29.74 in1007.1 mb - 0.00 in0.0 mm 0.00 in0.0 mm
05:40 PM 64.9°F18.3°C 47.9°F8.8°C 54% 12.7 mph WSW20.4 kmh WSW 18.4 mph29.6 kmh 29.77 in1008.1 mb - 0.00 in0.0 mm 0.00 in0.0 mm
05:50 PM 64.5°F18.1°C 47.5°F8.6°C 54% 16.1 mph NW25.9 kmh NW 23.0 mph37.0 kmh 29.77 in1008.1 mb - 0.00 in0.0 mm 0.00 in0.0 mm
06:00 PM 62.2°F16.8°C 47.3°F8.5°C 58% 16.1 mph WSW25.9 kmh WSW 27.6 mph44.4 kmh 29.77 in1008.1 mb - 0.00 in0.0 mm 0.00 in0.0 mm
06:20 PM 64.3°F17.9°C 48.8°F9.3°C 57% 10.4 mph WSW16.7 kmh WSW 13.8 mph22.2 kmh 29.77 in1008.1 mb - 0.00 in0.0 mm 0.00 in0.0 mm
06:30 PM 64.3°F17.9°C 48.2°F9.0°C 56% 16.1 mph WSW25.9 kmh WSW 21.9 mph35.2 kmh 29.77 in1008.1 mb - 0.00 in0.0 mm 0.00 in0.0 mm
06:40 PM 63.7°F17.6°C 47.2°F8.4°C 55% 10.4 mph WSW16.7 kmh WSW 13.8 mph22.2 kmh 29.80 in1009.1 mb - 0.00 in0.0 mm 0.00 in0.0 mm
06:50 PM 62.2°F16.8°C 45.4°F7.4°C 54% 12.7 mph WSW20.4 kmh WSW 16.1 mph25.9 kmh 29.77 in1008.1 mb - 0.00 in0.0 mm 0.00 in0.0 mm
07:00 PM 61.0°F16.1°C 44.2°F6.8°C 54% 15.0 mph WSW24.1 kmh WSW 15.0 mph24.1 kmh 29.77 in1008.1 mb - 0.00 in0.0 mm 0.00 in0.0 mm
07:10 PM 60.4°F15.8°C 43.2°F6.2°C 53% 15.0 mph WNW24.1 kmh WNW 18.4 mph29.6 kmh 29.80 in1009.1 mb - 0.00 in0.0 mm 0.00 in0.0 mm
07:20 PM 59.8°F15.4°C 43.6°F6.4°C 55% 16.1 mph SW25.9 kmh SW 25.3 mph40.7 kmh 29.80 in1009.1 mb - 0.00 in0.0 mm 0.00 in0.0 mm
07:30 PM 59.2°F15.1°C 43.5°F6.4°C 56% 18.4 mph W29.6 kmh W 25.3 mph40.7 kmh 29.80 in1009.1 mb - 0.00 in0.0 mm 0.00 in0.0 mm
07:40 PM 58.5°F14.7°C 44.2°F6.8°C 59% 16.1 mph W25.9 kmh W 20.7 mph33.3 kmh 29.77 in1008.1 mb - 0.00 in0.0 mm 0.00 in0.0 mm
07:50 PM 58.5°F14.7°C 45.5°F7.5°C 62% 12.7 mph WSW20.4 kmh WSW 16.1 mph25.9 kmh 29.80 in1009.1 mb - 0.00 in0.0 mm 0.00 in0.0 mm
08:00 PM 58.1°F14.5°C 46.0°F7.8°C 64% 13.8 mph W22.2 kmh W 17.3 mph27.8 kmh 29.80 in1009.1 mb - 0.00 in0.0 mm 0.00 in0.0 mm
08:10 PM 57.4°F14.1°C 46.1°F7.8°C 66% 11.5 mph WNW18.5 kmh WNW 15.0 mph24.1 kmh 29.80 in1009.1 mb - 0.00 in0.0 mm 0.00 in0.0 mm
08:20 PM 56.7°F13.7°C 45.4°F7.4°C 66% 13.8 mph W22.2 kmh W 15.0 mph24.1 kmh 29.80 in1009.1 mb - 0.00 in0.0 mm 0.00 in0.0 mm
08:30 PM 56.1°F13.4°C 45.3°F7.4°C 67% 10.4 mph W16.7 kmh W 16.1 mph25.9 kmh 29.80 in1009.1 mb - 0.00 in0.0 mm 0.00 in0.0 mm
08:40 PM 55.8°F13.2°C 45.0°F7.2°C 67% 12.7 mph WSW20.4 kmh WSW 17.3 mph27.8 kmh 29.82 in1009.8 mb - 0.00 in0.0 mm 0.00 in0.0 mm
08:50 PM 55.4°F13.0°C 45.0°F7.2°C 68% 12.7 mph W20.4 kmh W 15.0 mph24.1 kmh 29.82 in1009.8 mb - 0.00 in0.0 mm 0.00 in0.0 mm
09:00 PM 54.9°F12.7°C 45.3°F7.4°C 70% 10.4 mph W16.7 kmh W 15.0 mph24.1 kmh 29.82 in1009.8 mb - 0.00 in0.0 mm 0.00 in0.0 mm
09:10 PM 54.5°F12.5°C 45.3°F7.4°C 71% 8.1 mph W13.0 kmh W 12.7 mph20.4 kmh 29.82 in1009.8 mb - 0.00 in0.0 mm 0.00 in0.0 mm
09:20 PM 54.1°F12.3°C 46.0°F7.8°C 74% 6.9 mph W11.1 kmh W 11.5 mph18.5 kmh 29.82 in1009.8 mb - 0.00 in0.0 mm 0.00 in0.0 mm
09:30 PM 53.8°F12.1°C 45.7°F7.6°C 74% 9.2 mph W14.8 kmh W 13.8 mph22.2 kmh 29.82 in1009.8 mb - 0.00 in0.0 mm 0.00 in0.0 mm
09:40 PM 53.4°F11.9°C 45.3°F7.4°C 74% 10.4 mph W16.7 kmh W 13.8 mph22.2 kmh 29.86 in1011.2 mb - 0.00 in0.0 mm 0.00 in0.0 mm
09:50 PM 53.1°F11.7°C 44.3°F6.8°C 72% 10.4 mph W16.7 kmh W 12.7 mph20.4 kmh 29.86 in1011.2 mb - 0.00 in0.0 mm 0.00 in0.0 mm
10:00 PM 52.9°F11.6°C 43.7°F6.5°C 71% 10.4 mph WSW16.7 kmh WSW 12.7 mph20.4 kmh 29.86 in1011.2 mb - 0.00 in0.0 mm 0.00 in0.0 mm
10:10 PM 52.5°F11.4°C 43.0°F6.1°C 70% 12.7 mph WSW20.4 kmh WSW 13.8 mph22.2 kmh 29.86 in1011.2 mb - 0.00 in0.0 mm 0.00 in0.0 mm
10:20 PM 52.3°F11.3°C 42.8°F6.0°C 70% 10.4 mph WNW16.7 kmh WNW 13.8 mph22.2 kmh 29.86 in1011.2 mb - 0.00 in0.0 mm 0.00 in0.0 mm
10:30 PM 52.0°F11.1°C 42.5°F5.8°C 70% 11.5 mph W18.5 kmh W 18.4 mph29.6 kmh 29.86 in1011.2 mb - 0.00 in0.0 mm 0.00 in0.0 mm
10:40 PM 51.8°F11.0°C 42.7°F5.9°C 71% 10.4 mph WSW16.7 kmh WSW 12.7 mph20.4 kmh 29.86 in1011.2 mb - 0.00 in0.0 mm 0.00 in0.0 mm
10:50 PM 51.6°F10.9°C 42.5°F5.8°C 71% 11.5 mph W18.5 kmh W 13.8 mph22.2 kmh 29.86 in1011.2 mb - 0.00 in0.0 mm 0.00 in0.0 mm
11:00 PM 51.4°F10.8°C 42.7°F5.9°C 72% 10.4 mph W16.7 kmh W 13.8 mph22.2 kmh 29.86 in1011.2 mb - 0.00 in0.0 mm 0.00 in0.0 mm
11:10 PM 51.3°F10.7°C 42.9°F6.1°C 73% 12.7 mph W20.4 kmh W 17.3 mph27.8 kmh 29.86 in1011.2 mb - 0.00 in0.0 mm 0.00 in0.0 mm
11:20 PM 51.1°F10.6°C 42.7°F5.9°C 73% 13.8 mph WSW22.2 kmh WSW 17.3 mph27.8 kmh 29.86 in1011.2 mb - 0.00 in0.0 mm 0.00 in0.0 mm
11:30 PM 50.7°F10.4°C 42.7°F5.9°C 74% 11.5 mph WSW18.5 kmh WSW 18.4 mph29.6 kmh 29.86 in1011.2 mb - 0.00 in0.0 mm 0.00 in0.0 mm
11:40 PM 50.5°F10.3°C 42.6°F5.9°C 74% 9.2 mph WSW14.8 kmh WSW 13.8 mph22.2 kmh 29.86 in1011.2 mb - 0.00 in0.0 mm 0.00 in0.0 mm
11:50 PM 50.5°F10.3°C 42.9°F6.1°C 75% 10.4 mph WSW16.7 kmh WSW 18.4 mph29.6 kmh 29.82 in1009.8 mb - 0.00 in0.0 mm 0.00 in0.0 mm